Time;durP1;ratioP1;P1;durP2;ratioP2;P2;SDS_P1;SDS_P2;PMS_P1;PMS_P2;Temp;Humidity;BMP_temperature;BMP_pressure;BME280_temperature;BME280_humidity;BME280_pressure;Samples;Min_cycle;Max_cycle;Signal;HPM_P1;HPM_P2
2023/05/30 00:01:43;;;;;;;15.70;3.90;;;10.00;99.90;;;;;;5029811;28;20319;-80
2023/05/30 00:04:10;;;;;;;15.53;4.17;;;10.00;99.90;;;;;;5031193;28;20231;-80
2023/05/30 00:06:37;;;;;;;16.20;4.00;;;9.90;99.90;;;;;;5031246;28;20925;-80
2023/05/30 00:09:04;;;;;;;16.93;4.20;;;9.90;99.90;;;;;;5028111;28;20908;-80
2023/05/30 00:11:31;;;;;;;12.03;3.83;;;9.90;99.90;;;;;;5033096;28;20317;-80
2023/05/30 00:13:58;;;;;;;13.97;4.30;;;9.80;99.90;;;;;;5028622;28;20812;-80
2023/05/30 00:16:27;;;;;;;14.47;4.10;;;9.80;99.90;;;;;;5034216;28;20311;-80
2023/05/30 00:18:56;;;;;;;14.03;3.60;;;9.80;99.90;;;;;;5040069;28;20240;-80
2023/05/30 00:21:23;;;;;;;11.63;3.90;;;9.70;99.90;;;;;;5032805;28;20237;-80
2023/05/30 00:23:50;;;;;;;15.57;3.80;;;9.70;99.90;;;;;;5031549;28;20235;-80
2023/05/30 00:26:16;;;;;;;14.13;4.23;;;9.70;99.90;;;;;;5030604;28;20228;-80
2023/05/30 00:28:50;;;;;;;13.60;4.30;;;9.60;99.90;;;;;;5036821;28;20228;-80
2023/05/30 00:31:18;;;;;;;12.40;3.53;;;9.60;99.90;;;;;;5031103;28;20228;-80
2023/05/30 00:33:45;;;;;;;12.97;3.80;;;9.60;99.90;;;;;;5035258;28;20790;-79
2023/05/30 00:36:13;;;;;;;14.83;4.53;;;9.50;99.90;;;;;;5029035;28;20224;-80
2023/05/30 00:38:41;;;;;;;13.63;3.87;;;9.50;99.90;;;;;;5037029;28;20233;-80
2023/05/30 00:41:08;;;;;;;10.67;3.83;;;9.50;99.90;;;;;;5029609;28;20312;-80
2023/05/30 00:43:37;;;;;;;13.23;4.10;;;9.50;99.90;;;;;;5032231;28;20225;-79
2023/05/30 00:46:04;;;;;;;14.57;3.80;;;9.40;99.90;;;;;;5029475;28;20221;-80
2023/05/30 00:48:31;;;;;;;10.53;4.07;;;9.40;99.90;;;;;;5035969;28;20224;-80
2023/05/30 00:50:58;;;;;;;11.40;3.33;;;9.40;99.90;;;;;;5033441;28;20762;-80
2023/05/30 00:53:27;;;;;;;15.60;4.27;;;9.30;99.90;;;;;;5028303;28;20224;-80
2023/05/30 00:55:54;;;;;;;14.20;3.97;;;9.30;99.90;;;;;;5033839;28;20231;-80
2023/05/30 00:58:22;;;;;;;9.87;3.63;;;9.30;99.90;;;;;;5035603;28;20220;-80
2023/05/30 01:00:52;;;;;;;10.47;3.40;;;9.20;99.90;;;;;;5031092;28;20765;-79
2023/05/30 01:03:22;;;;;;;15.63;3.77;;;9.20;99.90;;;;;;5030569;28;20236;-79
2023/05/30 01:05:50;;;;;;;10.97;3.93;;;9.20;99.90;;;;;;5033261;28;20225;-79
2023/05/30 01:08:20;;;;;;;11.10;3.60;;;9.20;99.90;;;;;;5036883;28;20230;-79
2023/05/30 01:10:56;;;;;;;15.43;3.53;;;9.20;99.90;;;;;;5031141;28;20251;-79
2023/05/30 01:13:41;;;;;;;11.83;3.60;;;9.10;99.90;;;;;;5028281;28;21423;-80
2023/05/30 01:16:10;;;;;;;11.70;3.63;;;9.10;99.90;;;;;;5031378;28;20227;-79
2023/05/30 01:18:42;;;;;;;15.83;4.30;;;9.10;99.90;;;;;;5026149;28;20252;-79
2023/05/30 01:21:10;;;;;;;12.20;3.57;;;9.10;99.90;;;;;;5034941;28;20870;-79
2023/05/30 01:24:05;;;;;;;12.67;3.43;;;9.10;99.90;;;;;;5026942;28;20237;-78
2023/05/30 01:26:53;;;;;;;11.30;3.40;;;9.00;99.90;;;;;;5032724;28;20664;-79
2023/05/30 01:29:24;;;;;;;16.23;3.97;;;9.00;99.90;;;;;;5029913;28;20227;-79
2023/05/30 01:31:51;;;;;;;10.97;3.80;;;9.00;99.90;;;;;;5030968;28;20320;-79
2023/05/30 01:34:18;;;;;;;11.53;3.67;;;9.00;99.90;;;;;;5027926;28;20827;-78
2023/05/30 01:36:46;;;;;;;13.40;3.13;;;8.90;99.90;;;;;;5035694;28;20231;-78
2023/05/30 01:39:13;;;;;;;15.97;3.60;;;8.90;99.90;;;;;;5036605;28;20216;-79
2023/05/30 01:41:50;;;;;;;11.90;4.40;;;8.80;99.90;;;;;;5034876;28;20718;-79
2023/05/30 01:44:27;;;;;;;13.67;3.77;;;8.80;99.90;;;;;;5030127;28;20238;-79
2023/05/30 01:47:00;;;;;;;11.23;3.57;;;8.80;99.90;;;;;;5037766;28;20243;-79
2023/05/30 01:49:33;;;;;;;17.47;4.10;;;8.80;99.90;;;;;;5035871;28;20312;-78
2023/05/30 01:52:02;;;;;;;14.63;4.23;;;8.70;99.90;;;;;;5033367;28;20220;-77
2023/05/30 01:54:31;;;;;;;10.33;3.57;;;8.70;99.90;;;;;;5027298;28;20220;-80
2023/05/30 01:57:03;;;;;;;9.53;3.10;;;8.70;99.90;;;;;;5034288;28;20308;-79
2023/05/30 01:59:32;;;;;;;10.80;3.63;;;8.60;99.90;;;;;;5025117;28;20230;-80
2023/05/30 02:02:01;;;;;;;9.00;3.07;;;8.60;99.90;;;;;;5032874;28;20220;-80
2023/05/30 02:04:27;;;;;;;14.50;3.90;;;8.60;99.90;;;;;;5024674;28;20231;-79
2023/05/30 02:06:54;;;;;;;7.43;2.93;;;8.60;99.90;;;;;;5035772;28;20628;-79
2023/05/30 02:09:22;;;;;;;9.90;3.80;;;8.60;99.90;;;;;;5032243;28;20219;-79
2023/05/30 02:11:48;;;;;;;10.57;3.23;;;8.60;99.90;;;;;;5032472;28;20307;-79
2023/05/30 02:14:15;;;;;;;12.40;3.03;;;8.50;99.90;;;;;;5027869;28;20853;-79
2023/05/30 02:16:44;;;;;;;9.20;3.30;;;8.50;99.90;;;;;;5030569;28;20763;-78
2023/05/30 02:19:17;;;;;;;13.90;4.07;;;8.50;99.90;;;;;;5029555;28;20224;-78
2023/05/30 02:21:44;;;;;;;10.90;3.47;;;8.50;99.90;;;;;;5029477;28;20248;-79
2023/05/30 02:24:12;;;;;;;12.27;3.43;;;8.40;99.90;;;;;;5025276;28;20271;-78
2023/05/30 02:26:38;;;;;;;9.60;2.97;;;8.40;99.90;;;;;;5028025;28;20220;-79
2023/05/30 02:29:05;;;;;;;17.90;3.57;;;8.40;99.90;;;;;;5029820;28;20227;-78
2023/05/30 02:31:32;;;;;;;9.57;3.60;;;8.40;99.90;;;;;;5037350;28;20349;-78
2023/05/30 02:34:00;;;;;;;11.60;3.57;;;8.40;99.90;;;;;;5032270;28;20221;-79
2023/05/30 02:36:27;;;;;;;11.20;2.97;;;8.30;99.90;;;;;;5031892;28;20310;-78
2023/05/30 02:38:53;;;;;;;9.93;3.17;;;8.30;99.90;;;;;;5030932;28;20258;-78
2023/05/30 02:41:21;;;;;;;8.40;2.87;;;8.30;99.90;;;;;;5025383;28;20270;-79
2023/05/30 02:43:48;;;;;;;8.30;3.00;;;8.30;99.90;;;;;;5029599;28;20232;-79
2023/05/30 02:46:14;;;;;;;12.67;3.77;;;8.20;99.90;;;;;;5030567;28;20227;-79
2023/05/30 02:48:42;;;;;;;13.93;3.20;;;8.20;99.90;;;;;;5026026;28;20216;-79
2023/05/30 02:51:10;;;;;;;12.53;3.63;;;8.20;99.90;;;;;;5033615;28;20231;-78
2023/05/30 02:53:37;;;;;;;12.30;2.97;;;8.20;99.90;;;;;;5030100;28;20251;-79
2023/05/30 02:56:04;;;;;;;11.97;3.40;;;8.20;99.90;;;;;;5031023;28;20705;-79
2023/05/30 02:58:49;;;;;;;9.13;3.07;;;8.20;99.90;;;;;;5032448;28;20282;-78
2023/05/30 03:01:42;;;;;;;10.10;3.40;;;8.20;99.90;;;;;;5029574;28;20237;-78
2023/05/30 03:04:10;;;;;;;10.10;3.17;;;8.10;99.90;;;;;;5025847;28;20222;-77
2023/05/30 03:06:42;;;;;;;11.93;3.30;;;8.10;99.90;;;;;;5023904;28;20223;-77
2023/05/30 03:09:17;;;;;;;11.30;3.53;;;8.10;99.90;;;;;;5022979;28;20740;-78
2023/05/30 03:11:44;;;;;;;11.27;3.67;;;8.10;99.90;;;;;;5036364;28;20318;-78
2023/05/30 03:14:11;;;;;;;9.70;3.23;;;8.10;99.90;;;;;;5033554;28;20254;-75
2023/05/30 03:16:39;;;;;;;11.80;3.57;;;8.10;99.90;;;;;;5040297;28;20228;-75
2023/05/30 03:19:08;;;;;;;11.20;3.23;;;8.10;99.90;;;;;;5027770;28;20224;-75
2023/05/30 03:21:36;;;;;;;11.43;3.13;;;8.10;99.90;;;;;;5032393;28;20886;-75
2023/05/30 03:24:05;;;;;;;14.07;3.63;;;8.00;99.90;;;;;;5030296;28;20285;-75
2023/05/30 03:26:35;;;;;;;12.30;3.50;;;8.00;99.90;;;;;;5035358;28;20644;-75
2023/05/30 03:29:02;;;;;;;12.77;3.57;;;8.10;99.90;;;;;;5034969;28;20217;-75
2023/05/30 03:31:30;;;;;;;14.00;4.07;;;8.10;99.90;;;;;;5034223;28;20231;-75
2023/05/30 03:33:57;;;;;;;14.70;3.93;;;8.00;99.90;;;;;;5031932;28;20220;-75
2023/05/30 03:36:25;;;;;;;8.70;3.60;;;8.10;99.90;;;;;;5027909;28;20319;-75
2023/05/30 03:38:53;;;;;;;10.30;3.70;;;8.10;99.90;;;;;;5044767;28;20223;-75
2023/05/30 03:41:22;;;;;;;10.70;3.80;;;8.10;99.90;;;;;;5031309;28;20232;-75
2023/05/30 03:43:50;;;;;;;13.50;3.93;;;8.10;99.90;;;;;;5032142;28;20690;-75
2023/05/30 03:46:19;;;;;;;14.40;4.23;;;8.10;99.90;;;;;;5036950;28;20279;-76
2023/05/30 03:48:46;;;;;;;12.23;3.47;;;8.10;99.90;;;;;;5025080;28;20229;-75
2023/05/30 03:51:13;;;;;;;12.43;4.13;;;8.20;99.90;;;;;;5025907;28;20240;-75
2023/05/30 03:53:42;;;;;;;15.47;4.07;;;8.20;99.90;;;;;;5025728;28;20232;-76
2023/05/30 03:56:08;;;;;;;12.00;3.57;;;8.20;99.90;;;;;;5032658;28;20225;-75
2023/05/30 03:58:36;;;;;;;9.93;3.57;;;8.30;99.90;;;;;;5032429;28;20225;-76
2023/05/30 04:01:03;;;;;;;13.50;3.77;;;8.40;99.90;;;;;;5042031;28;20224;-76
2023/05/30 04:03:30;;;;;;;13.53;4.10;;;8.50;99.90;;;;;;5033218;28;20234;-75
2023/05/30 04:05:58;;;;;;;10.63;4.30;;;8.50;99.90;;;;;;5024522;28;20329;-75
2023/05/30 04:08:25;;;;;;;13.23;4.30;;;8.60;99.90;;;;;;5042219;28;20225;-76
2023/05/30 04:10:52;;;;;;;11.80;3.87;;;8.70;99.90;;;;;;5032484;28;20286;-75
2023/05/30 04:13:19;;;;;;;11.60;3.80;;;8.70;99.90;;;;;;5040969;28;20242;-76
2023/05/30 04:15:49;;;;;;;11.43;3.67;;;8.80;99.90;;;;;;5037851;28;20224;-76
2023/05/30 04:18:16;;;;;;;12.33;4.00;;;8.80;99.90;;;;;;5035909;28;20222;-76
2023/05/30 04:20:43;;;;;;;11.57;3.60;;;8.90;99.90;;;;;;5033713;28;20224;-76
2023/05/30 04:23:10;;;;;;;12.73;4.23;;;8.90;99.90;;;;;;5029119;28;20308;-75
2023/05/30 04:25:37;;;;;;;10.70;4.03;;;9.00;99.90;;;;;;5035138;28;20217;-76
2023/05/30 04:28:06;;;;;;;18.50;4.43;;;9.00;99.90;;;;;;5023562;28;20228;-76
2023/05/30 04:30:33;;;;;;;15.57;4.43;;;9.10;99.90;;;;;;5025815;28;20233;-75
2023/05/30 04:33:01;;;;;;;14.40;4.67;;;9.20;99.90;;;;;;5031710;28;20209;-76
2023/05/30 04:35:28;;;;;;;17.40;5.00;;;9.30;99.90;;;;;;5034464;28;20311;-76
2023/05/30 04:37:55;;;;;;;12.10;4.20;;;9.30;99.90;;;;;;5040190;28;20310;-76
2023/05/30 04:40:22;;;;;;;16.27;4.67;;;9.40;99.90;;;;;;5041630;28;20240;-75
2023/05/30 04:42:52;;;;;;;14.47;5.03;;;9.50;99.90;;;;;;5044009;28;20295;-75
2023/05/30 04:45:19;;;;;;;15.00;4.20;;;9.60;99.90;;;;;;5044792;28;20258;-76
2023/05/30 04:47:46;;;;;;;21.37;4.47;;;9.60;99.90;;;;;;5037976;28;20216;-76
2023/05/30 04:50:15;;;;;;;19.60;4.80;;;9.60;99.90;;;;;;5033961;28;20219;-77
2023/05/30 04:52:43;;;;;;;14.47;4.00;;;9.70;99.90;;;;;;5037545;28;20271;-79
2023/05/30 04:55:10;;;;;;;15.87;4.70;;;9.80;99.90;;;;;;5030308;28;20228;-78
2023/05/30 04:57:37;;;;;;;12.40;4.63;;;9.80;99.90;;;;;;5036499;28;20280;-77
2023/05/30 05:00:10;;;;;;;9.60;3.97;;;9.90;99.90;;;;;;5026951;28;20218;-77
2023/05/30 05:02:38;;;;;;;14.67;4.33;;;10.00;99.90;;;;;;5032105;28;20252;-78
2023/05/30 05:05:06;;;;;;;22.57;11.63;;;10.10;99.90;;;;;;5034942;28;20708;-78
2023/05/30 05:07:34;;;;;;;19.07;7.13;;;10.20;99.90;;;;;;5030076;28;20234;-78
2023/05/30 05:10:01;;;;;;;9.53;4.10;;;10.30;99.90;;;;;;5033011;28;20225;-78
2023/05/30 05:12:28;;;;;;;14.50;4.83;;;10.30;99.90;;;;;;5033726;28;20287;-78
2023/05/30 05:14:55;;;;;;;8.80;4.10;;;10.30;99.90;;;;;;5035010;28;20969;-79
2023/05/30 05:17:22;;;;;;;15.77;5.20;;;10.40;99.90;;;;;;5026791;28;20231;-77
2023/05/30 05:19:48;;;;;;;12.87;4.07;;;10.50;99.90;;;;;;5042453;28;20640;-78
2023/05/30 05:22:16;;;;;;;22.07;10.10;;;10.50;99.90;;;;;;5034301;28;20239;-78
2023/05/30 05:24:44;;;;;;;9.63;4.93;;;10.60;99.90;;;;;;5030152;28;20795;-78
2023/05/30 05:27:11;;;;;;;12.77;4.80;;;10.60;99.90;;;;;;5026718;28;20853;-78
2023/05/30 05:29:38;;;;;;;13.33;4.43;;;10.60;99.90;;;;;;5024973;28;20225;-78
2023/05/30 05:32:06;;;;;;;13.63;4.87;;;10.70;99.90;;;;;;5024018;28;20219;-78
2023/05/30 05:34:33;;;;;;;15.00;4.83;;;10.70;99.90;;;;;;5032502;28;20807;-78
2023/05/30 05:36:59;;;;;;;12.33;4.33;;;10.80;99.90;;;;;;5038309;28;20234;-78
2023/05/30 05:39:26;;;;;;;10.30;4.57;;;10.80;99.90;;;;;;5025103;28;20230;-78
2023/05/30 05:41:54;;;;;;;12.43;4.00;;;10.80;99.90;;;;;;5032545;28;20223;-78
2023/05/30 05:44:21;;;;;;;14.00;4.43;;;10.80;99.90;;;;;;5024840;28;20226;-78
2023/05/30 05:46:48;;;;;;;11.37;4.50;;;10.90;99.90;;;;;;5025462;28;20313;-78
2023/05/30 05:49:14;;;;;;;11.00;4.50;;;10.90;99.90;;;;;;5032382;28;20225;-77
2023/05/30 05:51:41;;;;;;;12.67;4.27;;;10.90;99.90;;;;;;5026609;28;20227;-78
2023/05/30 05:54:08;;;;;;;13.63;4.90;;;11.00;99.90;;;;;;5029694;28;20315;-77
2023/05/30 05:56:34;;;;;;;12.63;4.63;;;11.00;99.90;;;;;;5052355;28;20228;-78
2023/05/30 05:59:03;;;;;;;13.30;4.80;;;11.00;99.90;;;;;;5027795;28;20223;-79
2023/05/30 06:01:30;;;;;;;10.57;4.53;;;11.00;99.90;;;;;;5019730;28;20723;-77
2023/05/30 06:03:56;;;;;;;12.27;5.30;;;11.00;99.90;;;;;;5033171;28;20933;-77
2023/05/30 06:06:23;;;;;;;12.83;4.63;;;11.10;99.90;;;;;;5029190;28;20221;-76
2023/05/30 06:08:49;;;;;;;13.97;4.77;;;11.10;99.90;;;;;;5028373;28;20226;-76
2023/05/30 06:11:16;;;;;;;14.63;4.40;;;11.20;99.90;;;;;;5024768;28;20274;-77
2023/05/30 06:13:43;;;;;;;11.03;3.80;;;11.30;99.90;;;;;;5036112;28;20223;-77
2023/05/30 06:16:11;;;;;;;9.57;3.97;;;11.40;99.90;;;;;;5043671;28;20633;-77
2023/05/30 06:18:37;;;;;;;11.23;4.70;;;11.50;99.90;;;;;;5039232;28;20225;-76
2023/05/30 06:21:04;;;;;;;8.33;3.60;;;11.60;99.90;;;;;;5028722;28;20218;-77
2023/05/30 06:23:31;;;;;;;8.23;4.00;;;11.80;99.90;;;;;;5033734;28;20595;-79
2023/05/30 06:25:58;;;;;;;9.97;4.10;;;11.90;99.90;;;;;;5033814;28;20693;-78
2023/05/30 06:28:24;;;;;;;11.20;4.30;;;12.00;99.90;;;;;;5032203;28;20226;-78
2023/05/30 06:30:51;;;;;;;12.87;4.27;;;12.10;99.90;;;;;;5036694;28;20230;-78
2023/05/30 06:33:20;;;;;;;11.77;4.37;;;12.20;99.90;;;;;;5048437;28;20258;-79
2023/05/30 06:35:47;;;;;;;11.03;3.90;;;12.30;99.90;;;;;;5029156;28;20312;-79
2023/05/30 06:38:15;;;;;;;10.07;4.60;;;12.40;99.90;;;;;;5036989;28;20351;-78
2023/05/30 06:40:41;;;;;;;11.13;4.47;;;12.50;99.90;;;;;;5028558;28;20240;-78
2023/05/30 06:43:08;;;;;;;12.27;5.90;;;12.50;99.90;;;;;;5034602;28;20229;-78
2023/05/30 06:45:35;;;;;;;10.33;5.07;;;12.50;99.90;;;;;;5040840;28;20228;-78
2023/05/30 06:48:02;;;;;;;9.57;3.87;;;12.50;99.90;;;;;;5033896;28;20233;-78
2023/05/30 06:50:30;;;;;;;9.20;4.00;;;12.40;99.90;;;;;;5035705;28;20226;-78
2023/05/30 06:52:57;;;;;;;7.97;3.97;;;12.40;99.90;;;;;;5033862;28;20227;-78
2023/05/30 06:55:24;;;;;;;10.20;3.50;;;12.40;99.90;;;;;;5035545;28;20235;-78
2023/05/30 06:57:54;;;;;;;10.80;4.07;;;12.40;99.90;;;;;;5042373;28;20229;-78
2023/05/30 07:00:22;;;;;;;10.23;4.87;;;12.40;99.90;;;;;;5037439;28;20223;-78
2023/05/30 07:02:49;;;;;;;7.57;3.43;;;12.50;99.90;;;;;;5030832;28;20230;-78
2023/05/30 07:05:15;;;;;;;6.83;3.17;;;12.50;99.90;;;;;;5035998;28;20218;-76
2023/05/30 07:07:43;;;;;;;10.60;3.43;;;12.70;99.90;;;;;;5043340;28;20231;-76
2023/05/30 07:10:10;;;;;;;11.90;4.77;;;12.80;99.90;;;;;;5036339;28;20228;-76
2023/05/30 07:12:37;;;;;;;11.57;4.70;;;13.00;99.90;;;;;;5032690;28;20232;-76
2023/05/30 07:15:05;;;;;;;11.53;3.73;;;13.10;99.90;;;;;;5030923;28;20231;-76
2023/05/30 07:17:32;;;;;;;10.87;4.10;;;13.20;99.90;;;;;;5040285;28;20565;-76
2023/05/30 07:19:59;;;;;;;10.47;3.97;;;13.20;99.90;;;;;;5034030;28;20227;-76
2023/05/30 07:22:25;;;;;;;9.63;4.10;;;13.20;99.90;;;;;;5036988;28;20228;-76
2023/05/30 07:24:53;;;;;;;8.53;3.77;;;13.20;99.90;;;;;;5038350;28;20234;-76
2023/05/30 07:27:20;;;;;;;11.77;3.60;;;13.30;99.90;;;;;;5030173;28;20220;-76
2023/05/30 07:29:47;;;;;;;7.93;3.87;;;13.30;99.90;;;;;;5032878;28;20228;-76
2023/05/30 07:32:14;;;;;;;9.57;3.43;;;13.40;99.90;;;;;;5039218;28;20223;-76
2023/05/30 07:34:41;;;;;;;10.70;3.57;;;13.50;99.90;;;;;;5034898;28;20228;-76
2023/05/30 07:37:08;;;;;;;9.90;3.57;;;13.60;99.90;;;;;;5030912;28;20806;-76
2023/05/30 07:39:35;;;;;;;7.43;3.20;;;13.60;99.90;;;;;;5032969;28;20234;-76
2023/05/30 07:42:04;;;;;;;7.40;3.03;;;13.70;99.90;;;;;;5033976;28;20228;-76
2023/05/30 07:44:30;;;;;;;7.00;3.13;;;13.70;99.90;;;;;;5041495;28;20223;-76
2023/05/30 07:46:57;;;;;;;7.03;3.00;;;13.80;99.90;;;;;;5044515;28;20228;-76
2023/05/30 07:49:24;;;;;;;7.57;3.17;;;13.80;99.90;;;;;;5032073;28;20232;-76
2023/05/30 07:51:50;;;;;;;6.60;2.90;;;13.90;99.90;;;;;;5028113;28;20271;-76
2023/05/30 07:54:17;;;;;;;6.40;2.83;;;13.90;99.90;;;;;;5037553;28;20235;-76
2023/05/30 07:56:44;;;;;;;9.03;3.33;;;14.00;99.90;;;;;;5033190;28;20243;-77
2023/05/30 07:59:12;;;;;;;6.73;2.93;;;14.10;99.90;;;;;;5035776;28;20230;-76
2023/05/30 08:01:38;;;;;;;5.50;2.90;;;14.20;99.90;;;;;;5032868;28;20228;-76
2023/05/30 08:04:05;;;;;;;6.23;3.13;;;14.20;99.90;;;;;;5030368;28;20220;-78
2023/05/30 08:06:33;;;;;;;8.47;3.03;;;14.20;99.90;;;;;;5034950;28;20224;-77
2023/05/30 08:09:00;;;;;;;7.60;3.07;;;14.30;99.90;;;;;;5033432;28;21032;-77
2023/05/30 08:11:26;;;;;;;6.37;3.10;;;14.40;99.90;;;;;;5034533;28;20231;-77
2023/05/30 08:13:53;;;;;;;7.97;3.33;;;14.60;99.90;;;;;;5035697;28;20306;-77
2023/05/30 08:16:23;;;;;;;5.03;3.03;;;14.60;99.90;;;;;;5040051;28;20216;-77
2023/05/30 08:18:51;;;;;;;7.03;3.53;;;14.70;99.70;;;;;;5044236;28;20285;-77
2023/05/30 08:21:17;;;;;;;9.17;3.50;;;14.90;99.60;;;;;;5034324;28;20231;-77
2023/05/30 08:23:45;;;;;;;8.43;3.10;;;14.90;99.40;;;;;;5032639;28;20231;-77
2023/05/30 08:26:11;;;;;;;6.63;3.13;;;15.00;99.40;;;;;;5038624;28;20641;-77
2023/05/30 08:28:38;;;;;;;8.40;3.43;;;15.10;99.30;;;;;;5036163;28;20212;-77
2023/05/30 08:31:05;;;;;;;10.57;3.67;;;15.10;99.30;;;;;;5032110;28;20840;-78
2023/05/30 08:33:34;;;;;;;6.03;3.33;;;15.20;99.20;;;;;;5033000;28;20225;-77
2023/05/30 08:36:01;;;;;;;6.33;3.30;;;15.30;98.90;;;;;;5034173;28;20223;-78
2023/05/30 08:38:27;;;;;;;7.70;3.30;;;15.30;98.70;;;;;;5033206;28;20709;-77
2023/05/30 08:40:54;;;;;;;7.10;3.37;;;15.30;98.30;;;;;;5036035;28;20238;-77
2023/05/30 08:43:21;;;;;;;6.37;3.40;;;15.30;98.30;;;;;;5035348;28;20251;-77
2023/05/30 08:45:52;;;;;;;7.60;3.80;;;15.30;98.20;;;;;;5031953;28;20236;-77
2023/05/30 08:48:21;;;;;;;7.73;3.80;;;15.20;98.30;;;;;;5039992;28;20223;-77
2023/05/30 08:50:49;;;;;;;7.53;4.10;;;15.20;98.40;;;;;;5034355;28;20698;-77
2023/05/30 08:53:25;;;;;;;6.60;3.90;;;15.10;98.50;;;;;;5046513;28;20228;-77
2023/05/30 08:55:59;;;;;;;7.83;3.97;;;15.20;98.70;;;;;;5039776;28;20227;-77
2023/05/30 08:58:30;;;;;;;7.37;3.93;;;15.10;98.80;;;;;;5035016;28;20725;-78
2023/05/30 09:00:58;;;;;;;9.10;4.03;;;15.10;98.50;;;;;;5031926;28;20699;-77
2023/05/30 09:03:27;;;;;;;7.67;4.63;;;15.10;98.60;;;;;;5040481;28;20231;-77
2023/05/30 09:05:56;;;;;;;11.70;4.40;;;15.10;98.40;;;;;;5036124;28;20627;-78
2023/05/30 09:08:25;;;;;;;11.27;4.40;;;15.00;98.40;;;;;;5033267;28;20220;-78
2023/05/30 09:10:53;;;;;;;13.23;4.70;;;14.90;98.60;;;;;;5028640;28;20726;-77
2023/05/30 09:13:21;;;;;;;9.83;4.03;;;14.80;98.80;;;;;;5026047;28;20742;-77
2023/05/30 09:15:48;;;;;;;10.40;4.57;;;14.80;98.90;;;;;;5027027;28;20236;-77
2023/05/30 09:18:16;;;;;;;14.10;5.77;;;14.80;99.10;;;;;;5037755;28;20816;-77
2023/05/30 09:20:43;;;;;;;7.73;4.13;;;14.70;99.00;;;;;;5027676;28;20228;-77
2023/05/30 09:23:11;;;;;;;9.37;4.90;;;14.70;99.10;;;;;;5028451;28;20227;-77
2023/05/30 09:25:42;;;;;;;9.57;5.13;;;14.70;99.10;;;;;;5053033;23;20236;-81
2023/05/30 09:28:09;;;;;;;9.10;4.77;;;14.70;99.30;;;;;;5035953;28;20560;-80
2023/05/30 09:30:36;;;;;;;9.70;4.50;;;14.70;99.30;;;;;;5035477;28;20244;-79
2023/05/30 09:33:03;;;;;;;10.30;4.40;;;14.80;99.40;;;;;;5018067;28;20239;-81
2023/05/30 09:35:30;;;;;;;11.97;4.43;;;14.90;99.30;;;;;;5021130;28;20246;-79
2023/05/30 09:37:57;;;;;;;8.30;4.03;;;15.00;99.20;;;;;;5033596;28;20232;-81
2023/05/30 09:40:25;;;;;;;11.73;4.90;;;15.00;99.20;;;;;;5023810;28;20236;-81
2023/05/30 09:42:53;;;;;;;10.10;4.37;;;15.00;99.10;;;;;;5021374;28;20263;-81
2023/05/30 09:45:22;;;;;;;10.13;4.73;;;15.10;99.00;;;;;;5018952;28;20235;-82
2023/05/30 09:47:51;;;;;;;9.90;4.17;;;15.10;98.90;;;;;;5014857;28;20231;-82
2023/05/30 09:50:19;;;;;;;10.30;4.43;;;15.20;98.80;;;;;;5032754;28;20224;-83
2023/05/30 09:52:48;;;;;;;10.57;5.30;;;15.30;99.00;;;;;;5009710;28;20985;-82
2023/05/30 09:55:16;;;;;;;7.47;4.20;;;15.30;98.90;;;;;;5014849;28;20220;-81
2023/05/30 09:57:50;;;;;;;9.43;4.53;;;15.40;98.80;;;;;;5014423;28;20846;-82
2023/05/30 10:00:22;;;;;;;8.57;4.23;;;15.40;98.60;;;;;;5014381;28;20213;-82
2023/05/30 10:02:53;;;;;;;9.03;4.30;;;15.50;98.70;;;;;;5019024;28;20225;-79
2023/05/30 10:05:21;;;;;;;11.63;4.40;;;15.60;98.70;;;;;;5012602;28;20239;-83
2023/05/30 10:07:49;;;;;;;9.17;4.13;;;15.70;98.70;;;;;;5017080;28;20315;-83
2023/05/30 10:10:17;;;;;;;14.50;8.10;;;15.80;98.60;;;;;;5030128;28;20319;-82
2023/05/30 10:12:44;;;;;;;10.33;4.93;;;15.90;98.50;;;;;;5015162;28;20861;-82
2023/05/30 10:15:12;;;;;;;9.07;4.30;;;16.00;98.20;;;;;;5015192;28;20232;-83
2023/05/30 10:17:48;;;;;;;7.67;3.93;;;16.10;98.00;;;;;;5014667;28;20246;-81
2023/05/30 10:20:16;;;;;;;7.93;3.77;;;16.10;97.90;;;;;;5015219;28;20273;-81
2023/05/30 10:22:44;;;;;;;11.23;5.10;;;16.20;98.00;;;;;;5033984;28;20262;-82
2023/05/30 10:25:13;;;;;;;8.88;4.13;;;16.20;97.90;;;;;;5017156;28;20973;-83
2023/05/30 10:27:43;;;;;;;7.70;4.00;;;16.20;97.70;;;;;;5014372;28;20231;-83
2023/05/30 10:30:15;;;;;;;11.73;4.70;;;16.20;97.50;;;;;;5012990;28;20272;-83
2023/05/30 10:32:45;;;;;;;7.43;4.00;;;16.20;97.50;;;;;;5011525;28;20221;-83
2023/05/30 10:35:15;;;;;;;9.70;4.80;;;16.10;97.40;;;;;;5027283;28;20697;-82
2023/05/30 10:37:45;;;;;;;9.10;3.83;;;16.10;97.20;;;;;;5005819;28;20927;-83
2023/05/30 10:40:24;;;;;;;8.57;4.77;;;16.00;97.10;;;;;;5030884;28;20230;-82
2023/05/30 10:43:04;;;;;;;8.97;4.50;;;15.90;97.30;;;;;;5011481;28;20227;-80
2023/05/30 10:45:43;;;;;;;8.30;4.33;;;15.90;97.60;;;;;;5029840;28;20224;-80
2023/05/30 10:48:19;;;;;;;12.13;6.10;;;15.80;97.30;;;;;;5009340;28;20230;-83
2023/05/30 10:50:49;;;;;;;8.00;4.30;;;15.80;97.40;;;;;;5016712;28;20247;-81
2023/05/30 10:53:17;;;;;;;9.33;4.23;;;15.70;97.50;;;;;;5029606;28;20352;-81
2023/05/30 10:55:46;;;;;;;9.03;4.47;;;15.70;97.80;;;;;;5009743;28;20236;-82
2023/05/30 10:58:35;;;;;;;10.10;4.47;;;15.80;97.90;;;;;;5028413;28;20228;-81
2023/05/30 11:01:25;;;;;;;9.60;4.60;;;15.90;97.80;;;;;;5010375;28;21349;-80
2023/05/30 11:03:57;;;;;;;9.70;4.70;;;15.90;97.50;;;;;;5008145;28;20236;-81
2023/05/30 11:06:25;;;;;;;8.17;4.80;;;16.00;97.50;;;;;;5020314;28;20228;-82
2023/05/30 11:08:53;;;;;;;7.13;4.63;;;16.00;97.40;;;;;;5020271;28;20699;-80
2023/05/30 11:11:21;;;;;;;8.13;5.63;;;16.00;97.40;;;;;;5015239;28;20257;-81
2023/05/30 11:13:50;;;;;;;9.37;4.97;;;16.00;97.40;;;;;;5012768;28;20235;-81
2023/05/30 11:16:24;;;;;;;8.57;4.97;;;16.10;97.70;;;;;;5014218;28;20794;-80
2023/05/30 11:18:53;;;;;;;9.63;5.33;;;16.10;97.70;;;;;;5019755;28;20743;-82
2023/05/30 11:21:58;;;;;;;8.33;4.63;;;16.20;97.60;;;;;;5031120;28;20219;-81
2023/05/30 11:24:25;;;;;;;11.30;5.43;;;16.20;97.50;;;;;;5017273;28;20249;-81
2023/05/30 11:26:57;;;;;;;10.83;5.57;;;16.40;97.70;;;;;;5025828;28;20223;-82
2023/05/30 11:29:31;;;;;;;7.97;3.93;;;16.40;97.50;;;;;;5013171;28;20275;-83
2023/05/30 11:31:59;;;;;;;9.52;4.88;;;16.50;97.40;;;;;;5020208;28;20231;-81
2023/05/30 11:34:26;;;;;;;9.80;4.17;;;16.60;97.50;;;;;;5020792;28;20247;-81
2023/05/30 11:36:53;;;;;;;7.63;4.60;;;16.80;97.40;;;;;;5014871;28;20231;-81
2023/05/30 11:39:20;;;;;;;11.40;4.93;;;17.00;97.30;;;;;;5017637;28;20219;-83
2023/05/30 11:41:48;;;;;;;10.63;5.55;;;17.10;96.90;;;;;;5029556;28;20224;-81
2023/05/30 11:44:15;;;;;;;8.75;4.90;;;17.30;96.70;;;;;;5030656;28;20228;-82
2023/05/30 11:46:42;;;;;;;9.80;4.70;;;17.40;96.60;;;;;;5017927;28;20285;-81
2023/05/30 11:49:10;;;;;;;11.77;4.90;;;17.50;96.00;;;;;;5017961;28;20224;-83
2023/05/30 11:51:39;;;;;;;8.68;4.55;;;17.60;95.80;;;;;;5034876;28;20315;-82
2023/05/30 11:54:08;;;;;;;7.97;4.57;;;17.60;95.70;;;;;;5015921;28;20263;-82
2023/05/30 11:56:37;;;;;;;6.30;4.18;;;17.70;95.80;;;;;;5019685;28;20240;-82
2023/05/30 11:59:04;;;;;;;7.82;3.90;;;17.80;95.70;;;;;;5014111;28;20235;-82
2023/05/30 12:01:30;;;;;;;10.25;4.95;;;17.90;95.70;;;;;;5021952;28;21114;-82
2023/05/30 12:03:59;;;;;;;7.38;3.88;;;18.00;95.50;;;;;;5029954;28;20282;-83
2023/05/30 12:06:31;;;;;;;6.57;4.03;;;18.10;95.30;;;;;;5018006;28;20229;-80
2023/05/30 12:08:58;;;;;;;8.68;4.20;;;18.30;94.90;;;;;;5031027;28;20248;-80
2023/05/30 12:11:25;;;;;;;10.57;4.78;;;18.50;94.90;;;;;;5031508;28;20228;-84
2023/05/30 12:13:55;;;;;;;6.13;3.83;;;18.60;94.60;;;;;;5016862;28;20228;-84
2023/05/30 12:16:21;;;;;;;7.80;4.18;;;18.90;94.10;;;;;;5022930;28;20286;-79
2023/05/30 12:18:48;;;;;;;10.35;4.20;;;19.00;94.10;;;;;;5020652;28;20456;-81
2023/05/30 12:21:20;;;;;;;5.25;3.55;;;19.20;93.70;;;;;;5014313;28;20224;-81
2023/05/30 12:23:48;;;;;;;6.40;3.70;;;19.40;93.30;;;;;;5018252;28;20223;-81
2023/05/30 12:26:18;;;;;;;5.45;3.65;;;19.60;93.10;;;;;;5013209;28;20706;-81
2023/05/30 12:28:46;;;;;;;6.82;3.90;;;19.70;92.60;;;;;;5022023;28;20224;-83
2023/05/30 12:31:21;;;;;;;7.40;4.15;;;19.80;92.20;;;;;;5022354;28;20220;-81
2023/05/30 12:33:48;;;;;;;7.32;4.20;;;19.70;91.80;;;;;;5030995;28;20298;-84
2023/05/30 12:36:15;;;;;;;5.38;3.90;;;19.70;91.60;;;;;;5031999;28;20303;-81
2023/05/30 12:38:41;;;;;;;7.25;3.47;;;19.60;91.80;;;;;;5021721;28;20254;-85
2023/05/30 12:41:09;;;;;;;8.70;4.25;;;19.60;91.90;;;;;;5015915;28;20702;-82
2023/05/30 12:43:37;;;;;;;5.97;4.40;;;19.60;91.50;;;;;;5033877;28;20259;-81
2023/05/30 12:46:08;;;;;;;9.52;4.40;;;19.60;91.60;;;;;;5020728;28;22084;-75
2023/05/30 12:48:35;;;;;;;6.43;3.88;;;19.60;91.40;;;;;;5026462;28;20297;-75
2023/05/30 12:51:02;;;;;;;8.23;3.58;;;19.70;91.50;;;;;;5028614;28;20739;-74
2023/05/30 12:53:28;;;;;;;4.78;3.50;;;19.70;91.40;;;;;;5028026;28;20245;-77